Time;durP1;ratioP1;P1;durP2;ratioP2;P2;SDS_P1;SDS_P2;PMS_P1;PMS_P2;Temp;Humidity;BMP_temperature;BMP_pressure;BME280_temperature;BME280_humidity;BME280_pressure;Samples;Min_cycle;Max_cycle;Signal;HPM_P1;HPM_P2
2024/05/02 00:01:24;;;;;;;3.25;1.67;;;16.20;78.40;;;;;;5387128;26;20244;-78
2024/05/02 00:03:53;;;;;;;1.95;1.40;;;16.20;78.30;;;;;;5383584;26;20246;-78
2024/05/02 00:06:21;;;;;;;2.42;1.85;;;16.20;77.70;;;;;;5383166;26;20262;-78
2024/05/02 00:08:50;;;;;;;2.72;1.75;;;16.10;79.10;;;;;;5385974;26;20254;-78
2024/05/02 00:11:19;;;;;;;1.60;1.48;;;16.10;79.00;;;;;;5379579;26;21445;-78
2024/05/02 00:13:50;;;;;;;3.28;1.85;;;16.20;80.10;;;;;;5381543;26;20333;-78
2024/05/02 00:16:19;;;;;;;2.33;1.50;;;;;;;;;;5385265;26;20333;-78
2024/05/02 00:18:48;;;;;;;1.85;1.60;;;16.00;78.60;;;;;;5387369;26;20329;-78
2024/05/02 00:21:17;;;;;;;2.90;1.65;;;16.00;79.80;;;;;;5381997;26;20310;-78
2024/05/02 00:23:45;;;;;;;1.42;1.33;;;16.00;80.30;;;;;;5385098;26;20293;-78
2024/05/02 00:26:14;;;;;;;2.17;1.63;;;16.00;80.40;;;;;;5380179;26;20374;-78
2024/05/02 00:28:43;;;;;;;1.73;1.45;;;16.00;80.80;;;;;;5373339;26;20262;-78
2024/05/02 00:31:20;;;;;;;2.90;1.58;;;15.90;81.80;;;;;;5369878;26;20307;-79
2024/05/02 00:33:49;;;;;;;3.47;1.80;;;16.00;81.70;;;;;;5372338;26;20721;-78
2024/05/02 00:36:17;;;;;;;1.70;1.50;;;15.90;82.10;;;;;;5357641;26;20360;-78
2024/05/02 00:38:46;;;;;;;2.35;1.60;;;15.90;81.70;;;;;;5371452;26;20358;-78
2024/05/02 00:41:16;;;;;;;1.80;1.25;;;15.90;82.30;;;;;;5373647;26;20302;-78
2024/05/02 00:43:44;;;;;;;3.33;1.60;;;15.90;81.20;;;;;;5378033;26;20246;-78
2024/05/02 00:46:13;;;;;;;3.08;1.60;;;15.80;80.60;;;;;;5380293;26;20332;-78
2024/05/02 00:48:45;;;;;;;2.28;1.88;;;15.80;81.30;;;;;;5387738;26;20257;-78
2024/05/02 00:51:14;;;;;;;4.32;1.80;;;15.80;82.20;;;;;;5383663;26;20290;-78
2024/05/02 00:53:44;;;;;;;2.55;1.70;;;15.80;82.70;;;;;;5397831;26;20769;-78
2024/05/02 00:56:14;;;;;;;2.95;1.45;;;15.80;83.00;;;;;;5380095;26;20294;-79
2024/05/02 00:58:43;;;;;;;2.30;1.63;;;15.60;81.50;;;;;;5375758;26;20687;-78
2024/05/02 01:01:12;;;;;;;2.33;1.50;;;15.70;82.10;;;;;;5379337;26;20243;-78
2024/05/02 01:03:41;;;;;;;1.77;1.67;;;15.70;81.30;;;;;;5378841;26;20339;-78
2024/05/02 01:06:12;;;;;;;2.28;1.63;;;15.80;81.30;;;;;;5382802;26;20392;-78
2024/05/02 01:08:41;;;;;;;3.00;1.58;;;15.80;81.10;;;;;;5386164;26;20630;-78
2024/05/02 01:11:10;;;;;;;2.72;1.80;;;15.70;81.30;;;;;;5387028;26;20302;-78
2024/05/02 01:13:39;;;;;;;4.25;1.80;;;15.70;80.90;;;;;;5376314;26;20363;-78
2024/05/02 01:16:08;;;;;;;1.77;1.63;;;15.70;80.50;;;;;;5388056;26;20345;-78
2024/05/02 01:18:37;;;;;;;2.15;1.95;;;15.70;81.30;;;;;;5379098;26;20357;-78
2024/05/02 01:21:03;;;;;;;1.73;1.63;;;15.60;81.10;;;;;;5388035;26;20253;-78
2024/05/02 01:23:39;;;;;;;2.70;2.00;;;15.50;81.70;;;;;;5383602;26;20247;-78
2024/05/02 01:26:08;;;;;;;2.60;1.80;;;15.50;81.70;;;;;;5380874;26;20238;-78
2024/05/02 01:28:36;;;;;;;2.28;1.77;;;15.40;81.60;;;;;;5382905;26;20251;-79
2024/05/02 01:31:05;;;;;;;2.28;1.80;;;15.40;81.70;;;;;;5367892;26;20685;-78
2024/05/02 01:33:34;;;;;;;4.05;2.00;;;15.40;82.00;;;;;;5367816;26;20239;-78
2024/05/02 01:36:03;;;;;;;2.72;1.92;;;15.30;81.20;;;;;;5365754;26;20307;-78
2024/05/02 01:38:31;;;;;;;2.55;1.80;;;15.30;82.00;;;;;;5346564;26;20370;-78
2024/05/02 01:41:03;;;;;;;2.20;2.00;;;15.20;81.80;;;;;;5382292;26;20737;-78
2024/05/02 01:43:32;;;;;;;3.50;1.83;;;15.20;81.80;;;;;;5367848;26;20327;-78
2024/05/02 01:46:01;;;;;;;3.55;2.53;;;15.20;81.90;;;;;;5379872;26;20246;-78
2024/05/02 01:48:29;;;;;;;3.33;2.00;;;15.20;82.70;;;;;;5386916;26;20360;-78
2024/05/02 01:50:58;;;;;;;2.17;1.98;;;15.20;81.90;;;;;;5369551;26;20361;-78
2024/05/02 01:53:28;;;;;;;3.08;1.95;;;15.10;82.70;;;;;;5353214;26;20258;-78
2024/05/02 01:56:00;;;;;;;3.03;1.90;;;15.10;83.60;;;;;;5374142;26;20329;-78
2024/05/02 01:58:32;;;;;;;2.40;1.77;;;15.20;82.80;;;;;;5375519;26;20384;-78
2024/05/02 02:01:00;;;;;;;2.00;1.90;;;15.20;82.70;;;;;;5379628;26;20249;-78
2024/05/02 02:03:29;;;;;;;2.40;1.98;;;15.20;82.60;;;;;;5372708;26;20575;-78
2024/05/02 02:05:58;;;;;;;5.10;1.95;;;15.10;83.00;;;;;;5370277;26;20362;-78
2024/05/02 02:08:26;;;;;;;1.98;1.83;;;15.10;83.40;;;;;;5374376;26;20319;-78
2024/05/02 02:10:55;;;;;;;2.40;1.92;;;15.10;82.70;;;;;;5384926;26;20241;-78
2024/05/02 02:13:24;;;;;;;2.28;2.00;;;15.10;82.80;;;;;;5372119;26;20301;-78
2024/05/02 02:15:55;;;;;;;2.80;1.85;;;15.10;83.10;;;;;;5367373;26;20250;-78
2024/05/02 02:18:24;;;;;;;2.92;2.33;;;15.10;83.90;;;;;;5383006;26;20696;-78
2024/05/02 02:20:53;;;;;;;3.28;1.92;;;15.00;83.30;;;;;;5381912;26;20306;-78
2024/05/02 02:23:22;;;;;;;3.95;2.10;;;15.00;83.70;;;;;;5382373;26;20243;-78
2024/05/02 02:25:50;;;;;;;3.75;2.20;;;15.00;83.20;;;;;;5374541;26;20231;-78
2024/05/02 02:28:19;;;;;;;3.38;2.20;;;15.00;83.50;;;;;;5358142;26;20299;-79
2024/05/02 02:30:48;;;;;;;3.85;1.95;;;15.00;83.70;;;;;;5363393;26;20418;-78
2024/05/02 02:33:20;;;;;;;2.28;1.90;;;15.00;82.90;;;;;;5364923;26;20374;-78
2024/05/02 02:35:49;;;;;;;4.22;2.30;;;14.90;83.70;;;;;;5373584;26;20251;-78
2024/05/02 02:38:17;;;;;;;2.00;1.90;;;14.90;84.30;;;;;;5366998;26;20246;-78
2024/05/02 02:40:46;;;;;;;3.13;2.08;;;14.90;85.60;;;;;;5369780;26;20248;-78
2024/05/02 02:43:15;;;;;;;2.25;1.77;;;14.90;86.10;;;;;;5374710;26;20243;-78
2024/05/02 02:45:43;;;;;;;2.38;2.17;;;14.90;86.00;;;;;;5375992;26;20258;-78
2024/05/02 02:48:12;;;;;;;2.72;2.28;;;14.90;86.90;;;;;;5385143;26;20371;-78
2024/05/02 02:50:43;;;;;;;3.22;2.25;;;15.00;87.30;;;;;;5365099;26;20733;-78
2024/05/02 02:53:12;;;;;;;2.78;2.00;;;15.00;85.80;;;;;;5381834;26;20297;-78
2024/05/02 02:55:41;;;;;;;3.20;2.33;;;15.00;86.80;;;;;;5377890;26;20246;-78
2024/05/02 02:58:10;;;;;;;2.65;2.28;;;14.90;86.90;;;;;;5376948;26;20246;-78
2024/05/02 03:00:39;;;;;;;2.88;2.15;;;15.00;87.60;;;;;;5376939;26;20250;-78
2024/05/02 03:03:08;;;;;;;3.22;2.35;;;15.00;87.50;;;;;;5363654;26;20357;-78
2024/05/02 03:05:36;;;;;;;2.60;2.40;;;15.00;86.50;;;;;;5370251;26;20290;-78
2024/05/02 03:08:08;;;;;;;2.60;2.25;;;15.00;87.80;;;;;;5369625;26;20376;-78
2024/05/02 03:10:37;;;;;;;3.17;1.88;;;15.00;87.50;;;;;;5385916;26;20251;-78
2024/05/02 03:13:06;;;;;;;4.45;2.30;;;15.00;86.90;;;;;;5377975;26;20604;-78
2024/05/02 03:15:35;;;;;;;2.20;1.88;;;14.90;86.60;;;;;;5380480;26;20298;-78
2024/05/02 03:18:03;;;;;;;2.80;2.33;;;14.90;86.80;;;;;;5384816;26;20246;-78
2024/05/02 03:20:32;;;;;;;4.47;2.40;;;14.90;87.30;;;;;;5383519;26;20243;-78
2024/05/02 03:23:01;;;;;;;2.85;2.50;;;14.80;87.50;;;;;;5385330;26;20274;-78
2024/05/02 03:25:32;;;;;;;2.53;2.00;;;14.80;89.00;;;;;;5384437;26;20373;-78
2024/05/02 03:28:01;;;;;;;3.50;2.50;;;14.80;86.90;;;;;;5368784;26;20697;-78
2024/05/02 03:30:30;;;;;;;2.67;2.10;;;14.80;87.60;;;;;;5365380;26;20357;-78
2024/05/02 03:32:58;;;;;;;2.38;2.05;;;14.80;88.50;;;;;;5372660;26;21055;-78
2024/05/02 03:35:27;;;;;;;2.55;2.13;;;14.80;87.50;;;;;;5362494;26;20354;-78
2024/05/02 03:37:56;;;;;;;2.33;1.80;;;14.80;88.40;;;;;;5381847;26;20287;-78
2024/05/02 03:40:24;;;;;;;2.97;2.15;;;14.80;88.10;;;;;;5382831;26;20368;-78
2024/05/02 03:42:56;;;;;;;3.45;2.38;;;14.70;87.60;;;;;;5381067;26;20247;-78
2024/05/02 03:45:24;;;;;;;2.83;2.08;;;14.80;87.50;;;;;;5387687;26;20310;-78
2024/05/02 03:47:53;;;;;;;2.22;2.00;;;14.80;87.90;;;;;;5384443;26;20288;-78
2024/05/02 03:50:22;;;;;;;2.45;2.03;;;14.80;87.90;;;;;;5387278;26;21461;-78
2024/05/02 03:52:51;;;;;;;3.08;2.25;;;14.80;87.00;;;;;;5392343;26;20350;-78
2024/05/02 03:55:20;;;;;;;3.70;2.03;;;14.70;87.60;;;;;;5385493;26;20253;-78
2024/05/02 03:57:49;;;;;;;2.88;2.10;;;14.70;87.80;;;;;;5390782;26;20356;-78
2024/05/02 04:00:22;;;;;;;2.55;2.00;;;14.70;88.30;;;;;;5376973;26;20343;-78
2024/05/02 04:02:51;;;;;;;2.38;2.10;;;14.70;87.70;;;;;;5386846;26;21058;-78
2024/05/02 04:05:20;;;;;;;2.83;2.13;;;14.70;88.10;;;;;;5379042;26;20394;-78
2024/05/02 04:07:49;;;;;;;4.55;2.25;;;14.70;89.10;;;;;;5379900;26;20599;-78
2024/05/02 04:10:17;;;;;;;3.75;2.20;;;14.70;88.00;;;;;;5379250;26;20246;-78
2024/05/02 04:12:46;;;;;;;3.20;2.33;;;14.80;88.70;;;;;;5366534;26;20298;-78
2024/05/02 04:15:15;;;;;;;1.92;1.75;;;14.80;89.10;;;;;;5380245;26;20362;-78
2024/05/02 04:17:46;;;;;;;2.60;2.03;;;14.80;88.80;;;;;;5395923;26;20255;-78
2024/05/02 04:20:17;;;;;;;2.20;2.00;;;14.90;88.70;;;;;;5380588;26;20238;-77
2024/05/02 04:22:45;;;;;;;2.85;2.10;;;15.00;89.40;;;;;;5374291;26;20286;-78
2024/05/02 04:25:14;;;;;;;2.55;2.13;;;15.00;89.70;;;;;;5385842;26;20297;-78
2024/05/02 04:27:43;;;;;;;4.45;2.58;;;15.00;89.80;;;;;;5389720;26;20303;-79
2024/05/02 04:30:12;;;;;;;4.43;2.40;;;15.00;89.80;;;;;;5379216;26;20793;-78
2024/05/02 04:32:41;;;;;;;3.03;2.38;;;15.00;89.70;;;;;;5373574;26;20343;-78
2024/05/02 04:35:12;;;;;;;2.92;2.58;;;15.00;89.90;;;;;;5372824;26;20259;-78
2024/05/02 04:37:42;;;;;;;2.60;2.40;;;15.00;89.80;;;;;;5368594;26;20247;-78
2024/05/02 04:40:12;;;;;;;2.58;2.22;;;15.00;90.00;;;;;;5380998;26;20297;-77
2024/05/02 04:42:41;;;;;;;2.33;2.08;;;15.00;90.00;;;;;;5374869;26;20224;-78
2024/05/02 04:45:10;;;;;;;3.15;2.30;;;15.00;90.20;;;;;;5380539;26;20381;-78
2024/05/02 04:47:38;;;;;;;2.50;2.30;;;15.00;90.30;;;;;;5379555;26;20242;-78
2024/05/02 04:50:08;;;;;;;2.88;2.38;;;15.00;90.50;;;;;;5381262;26;20362;-79
2024/05/02 04:52:39;;;;;;;3.63;2.30;;;15.00;90.00;;;;;;5381895;26;20235;-78
2024/05/02 04:55:08;;;;;;;2.13;1.90;;;15.00;90.00;;;;;;5373984;26;20293;-78
2024/05/02 04:57:37;;;;;;;3.50;2.33;;;15.00;90.20;;;;;;5379051;26;20689;-79
2024/05/02 05:00:07;;;;;;;2.13;1.98;;;15.00;90.30;;;;;;5376611;26;20347;-78
2024/05/02 05:02:36;;;;;;;2.45;1.77;;;15.10;90.50;;;;;;5381419;26;20242;-78
2024/05/02 05:05:05;;;;;;;3.08;2.15;;;15.10;90.50;;;;;;5381171;26;20280;-78
2024/05/02 05:07:34;;;;;;;4.20;2.10;;;15.20;90.60;;;;;;5380536;26;20373;-78
2024/05/02 05:10:06;;;;;;;2.13;1.92;;;15.30;90.60;;;;;;5377972;26;20268;-78
2024/05/02 05:12:34;;;;;;;2.78;2.33;;;15.40;90.90;;;;;;5378097;26;20230;-78
2024/05/02 05:15:03;;;;;;;2.40;2.20;;;15.40;91.40;;;;;;5379879;26;20583;-78
2024/05/02 05:17:32;;;;;;;2.33;2.00;;;15.50;91.60;;;;;;5374033;26;20234;-77
2024/05/02 05:20:00;;;;;;;2.75;1.95;;;15.50;91.60;;;;;;5372002;26;20327;-78
2024/05/02 05:22:29;;;;;;;2.72;2.05;;;15.60;91.60;;;;;;5380169;26;20230;-78
2024/05/02 05:24:58;;;;;;;2.65;2.35;;;15.60;92.10;;;;;;5378219;26;20242;-78
2024/05/02 05:27:29;;;;;;;2.58;1.85;;;15.70;92.40;;;;;;5377445;26;20285;-78
2024/05/02 05:30:00;;;;;;;3.83;2.03;;;15.70;91.60;;;;;;5377309;26;20243;-78
2024/05/02 05:32:28;;;;;;;2.10;1.92;;;15.70;91.30;;;;;;5378870;26;20242;-78
2024/05/02 05:34:57;;;;;;;3.13;2.00;;;15.80;91.60;;;;;;5375436;26;20242;-79
2024/05/02 05:37:26;;;;;;;2.70;1.92;;;15.80;91.50;;;;;;5370810;26;20342;-78
2024/05/02 05:39:54;;;;;;;2.10;1.90;;;15.90;91.60;;;;;;5381404;26;20250;-79
2024/05/02 05:42:23;;;;;;;3.05;2.10;;;15.90;92.20;;;;;;5374055;26;20298;-78
2024/05/02 05:44:54;;;;;;;3.08;1.90;;;15.90;91.00;;;;;;5364134;26;20709;-79
2024/05/02 05:47:23;;;;;;;2.78;2.03;;;16.00;91.70;;;;;;5366380;26;20761;-78
2024/05/02 05:49:52;;;;;;;3.58;1.95;;;16.10;91.90;;;;;;5377459;26;20662;-78
2024/05/02 05:52:26;;;;;;;3.58;1.88;;;16.10;90.30;;;;;;5379618;26;20249;-78
2024/05/02 05:54:54;;;;;;;2.70;1.70;;;16.20;91.80;;;;;;5366443;26;20242;-79
2024/05/02 05:57:23;;;;;;;3.63;1.77;;;16.20;91.20;;;;;;5380617;26;20361;-78
2024/05/02 05:59:54;;;;;;;1.77;1.67;;;16.20;89.90;;;;;;5380469;26;20254;-78
2024/05/02 06:02:23;;;;;;;1.90;1.70;;;16.30;88.00;;;;;;5378982;26;20243;-78
2024/05/02 06:04:52;;;;;;;3.08;1.75;;;16.40;91.00;;;;;;5374039;26;20270;-78
2024/05/02 06:07:23;;;;;;;3.05;2.03;;;16.60;91.30;;;;;;5381425;26;20733;-78
2024/05/02 06:09:51;;;;;;;3.63;2.30;;;16.60;90.80;;;;;;5380209;26;20250;-78
2024/05/02 06:12:20;;;;;;;3.65;2.22;;;16.50;89.80;;;;;;5376332;26;20292;-78
2024/05/02 06:14:49;;;;;;;4.13;2.33;;;16.40;90.20;;;;;;5375238;26;20293;-79
2024/05/02 06:17:20;;;;;;;2.55;2.17;;;16.50;91.40;;;;;;5376058;26;20376;-79
2024/05/02 06:19:49;;;;;;;3.20;2.33;;;16.50;90.90;;;;;;5380168;26;20715;-78
2024/05/02 06:22:18;;;;;;;4.30;2.08;;;16.60;91.70;;;;;;5370763;26;20290;-79
2024/05/02 06:24:46;;;;;;;2.78;2.15;;;16.60;92.00;;;;;;5348277;26;20227;-82
2024/05/02 06:27:15;;;;;;;4.13;2.35;;;16.70;92.00;;;;;;5350496;26;20282;-80
2024/05/02 06:29:44;;;;;;;4.50;2.25;;;16.70;92.00;;;;;;5349799;26;20718;-82
2024/05/02 06:32:12;;;;;;;3.53;2.30;;;16.80;92.80;;;;;;5349414;26;20243;-81
2024/05/02 06:34:44;;;;;;;3.90;2.00;;;16.80;92.10;;;;;;5349240;26;20687;-81
2024/05/02 06:37:13;;;;;;;2.35;1.80;;;16.90;91.70;;;;;;5349479;26;20608;-82
2024/05/02 06:39:41;;;;;;;3.35;2.00;;;17.00;91.70;;;;;;5349578;26;20329;-81
2024/05/02 06:42:10;;;;;;;3.50;1.90;;;17.20;91.40;;;;;;5350652;26;20353;-82
2024/05/02 06:44:39;;;;;;;2.83;1.80;;;17.40;91.20;;;;;;5365265;26;20282;-82
2024/05/02 06:47:08;;;;;;;2.00;1.60;;;17.80;91.40;;;;;;5388014;26;20269;-82
2024/05/02 06:49:37;;;;;;;2.03;1.85;;;18.00;87.90;;;;;;5386073;26;20437;-81
2024/05/02 06:52:08;;;;;;;2.65;1.60;;;18.30;86.30;;;;;;5395178;26;20235;-80
2024/05/02 06:54:37;;;;;;;1.70;1.60;;;18.20;82.30;;;;;;5385982;26;20327;-79
2024/05/02 06:57:06;;;;;;;2.85;1.60;;;18.30;83.10;;;;;;5385021;26;20230;-79
2024/05/02 06:59:35;;;;;;;2.55;1.48;;;18.40;84.90;;;;;;5386308;26;20298;-81
2024/05/02 07:02:04;;;;;;;1.73;1.45;;;18.60;86.70;;;;;;5387444;26;20278;-81
2024/05/02 07:04:32;;;;;;;1.58;1.48;;;18.80;86.00;;;;;;5388096;26;20234;-82
2024/05/02 07:07:01;;;;;;;1.50;1.40;;;18.90;84.60;;;;;;5404263;21;20416;-83
2024/05/02 07:09:32;;;;;;;3.05;1.42;;;19.10;85.60;;;;;;5382696;26;20266;-82
2024/05/02 07:12:01;;;;;;;3.45;1.65;;;19.00;82.30;;;;;;5381232;26;20239;-83
2024/05/02 07:14:30;;;;;;;3.05;1.65;;;18.90;81.80;;;;;;5371819;26;20250;-82
2024/05/02 07:16:58;;;;;;;2.70;1.33;;;18.60;80.60;;;;;;5377593;26;20249;-83
2024/05/02 07:19:27;;;;;;;2.33;1.50;;;18.40;81.10;;;;;;5391088;26;20354;-83
2024/05/02 07:21:56;;;;;;;1.52;1.40;;;18.20;82.10;;;;;;5378285;26;20322;-83
2024/05/02 07:24:25;;;;;;;2.45;1.40;;;18.10;84.80;;;;;;5377232;26;20343;-83
2024/05/02 07:26:56;;;;;;;2.83;1.50;;;18.00;84.20;;;;;;5383915;26;20277;-82
2024/05/02 07:29:25;;;;;;;2.45;1.40;;;18.00;82.20;;;;;;5385745;26;20263;-83
2024/05/02 07:31:54;;;;;;;2.05;1.20;;;17.90;83.60;;;;;;5365401;26;20382;-83
2024/05/02 07:34:23;;;;;;;2.33;1.55;;;17.90;84.00;;;;;;5364884;26;20622;-82
2024/05/02 07:36:52;;;;;;;3.38;1.60;;;17.90;83.20;;;;;;5376422;26;20242;-83
2024/05/02 07:39:20;;;;;;;1.48;1.38;;;17.90;85.70;;;;;;5374363;26;20322;-82
2024/05/02 07:41:49;;;;;;;2.50;1.50;;;17.80;85.20;;;;;;5380485;26;20262;-82
2024/05/02 07:44:21;;;;;;;3.42;1.50;;;17.90;89.50;;;;;;5366963;26;20286;-82
2024/05/02 07:46:51;;;;;;;5.55;2.15;;;18.00;85.20;;;;;;5362713;26;20300;-83
2024/05/02 07:49:23;;;;;;;4.50;1.73;;;18.00;83.60;;;;;;5376741;26;20243;-83
2024/05/02 07:51:52;;;;;;;2.03;1.42;;;18.10;83.90;;;;;;5378105;26;20329;-83
2024/05/02 07:54:20;;;;;;;4.38;1.60;;;18.10;85.00;;;;;;5379927;26;20315;-80
2024/05/02 07:56:49;;;;;;;4.25;1.70;;;18.30;85.70;;;;;;5387782;26;20246;-80
2024/05/02 07:59:21;;;;;;;2.22;1.25;;;18.40;86.90;;;;;;5374423;26;20656;-80
2024/05/02 08:01:50;;;;;;;5.70;2.50;;;18.60;86.30;;;;;;5374041;26;20339;-80
2024/05/02 08:04:18;;;;;;;6.00;2.70;;;18.60;86.10;;;;;;5379589;26;20243;-80
2024/05/02 08:06:47;;;;;;;4.72;1.65;;;18.80;88.10;;;;;;5385508;26;20246;-79
2024/05/02 08:09:16;;;;;;;1.40;1.30;;;19.00;86.70;;;;;;5378183;26;20295;-79
2024/05/02 08:11:44;;;;;;;1.83;1.20;;;19.30;83.00;;;;;;5374724;26;20259;-80
2024/05/02 08:14:13;;;;;;;3.42;1.20;;;19.60;81.90;;;;;;5375742;26;20277;-80
2024/05/02 08:16:45;;;;;;;1.20;1.10;;;;;;;;;;5384415;26;20246;-80
2024/05/02 08:19:14;;;;;;;1.85;1.08;;;20.40;84.60;;;;;;5372230;26;20626;-80
2024/05/02 08:21:43;;;;;;;1.58;1.15;;;20.60;82.30;;;;;;5377722;26;20250;-80
2024/05/02 08:24:11;;;;;;;2.30;1.13;;;20.80;81.10;;;;;;5375578;26;20302;-80
2024/05/02 08:26:40;;;;;;;1.25;0.93;;;20.90;78.40;;;;;;5374259;26;20360;-80
2024/05/02 08:29:09;;;;;;;2.90;1.15;;;20.90;80.30;;;;;;5374125;26;20251;-81
2024/05/02 08:31:37;;;;;;;1.65;1.00;;;21.00;78.30;;;;;;5358203;26;20255;-81
2024/05/02 08:34:09;;;;;;;2.03;1.20;;;21.20;79.90;;;;;;5366040;26;20274;-81
2024/05/02 08:36:38;;;;;;;5.10;1.20;;;21.40;79.30;;;;;;5372134;26;20294;-81
2024/05/02 08:39:06;;;;;;;1.05;0.85;;;21.60;79.40;;;;;;5373434;26;20300;-82
2024/05/02 08:41:35;;;;;;;1.05;0.70;;;21.60;79.60;;;;;;5369953;26;20754;-81
2024/05/02 08:44:04;;;;;;;1.10;0.80;;;21.50;72.20;;;;;;5372433;26;20297;-81
2024/05/02 08:46:35;;;;;;;0.80;0.70;;;21.50;73.60;;;;;;5362911;26;20797;-81
2024/05/02 08:49:05;;;;;;;0.82;0.70;;;21.70;76.00;;;;;;5363559;26;20642;-81
2024/05/02 08:51:37;;;;;;;1.90;0.88;;;21.70;76.60;;;;;;5375478;26;20289;-82
2024/05/02 08:54:06;;;;;;;2.65;0.55;;;21.80;75.70;;;;;;5370024;26;20302;-81
2024/05/02 08:56:37;;;;;;;1.73;0.68;;;21.90;73.70;;;;;;5378402;26;20314;-81
2024/05/02 08:59:12;;;;;;;1.38;0.68;;;22.00;74.30;;;;;;5377900;26;20739;-80
2024/05/02 09:01:41;;;;;;;2.15;0.80;;;22.00;70.80;;;;;;5368460;26;20239;-80
2024/05/02 09:04:11;;;;;;;1.75;0.82;;;22.00;72.20;;;;;;5375549;26;20301;-81
2024/05/02 09:06:43;;;;;;;0.68;0.68;;;21.90;72.00;;;;;;5375154;26;20625;-81
2024/05/02 09:09:12;;;;;;;2.30;0.73;;;21.70;72.60;;;;;;5371607;26;20246;-80
2024/05/02 09:11:52;;;;;;;0.93;0.70;;;21.60;77.20;;;;;;5377373;26;20306;-81
2024/05/02 09:14:21;;;;;;;1.85;0.93;;;21.40;71.30;;;;;;5384668;26;20289;-80
2024/05/02 09:16:51;;;;;;;1.70;0.88;;;21.30;72.60;;;;;;5376554;26;20281;-81
2024/05/02 09:19:20;;;;;;;1.02;0.70;;;21.10;72.10;;;;;;5368302;26;20768;-81
2024/05/02 09:21:52;;;;;;;1.65;0.80;;;21.00;70.30;;;;;;5374130;26;20302;-82
2024/05/02 09:24:21;;;;;;;1.42;0.80;;;20.90;76.30;;;;;;5377308;26;20360;-82
2024/05/02 09:26:54;;;;;;;0.68;0.68;;;20.80;73.60;;;;;;5374766;26;20249;-81
2024/05/02 09:29:22;;;;;;;2.35;1.02;;;20.80;75.20;;;;;;5377972;26;20319;-80
2024/05/02 09:31:51;;;;;;;1.73;0.80;;;20.80;76.40;;;;;;5350538;26;20346;-81
2024/05/02 09:34:20;;;;;;;1.33;0.70;;;20.90;77.20;;;;;;5362861;26;20368;-81
2024/05/02 09:36:55;;;;;;;1.55;0.60;;;20.90;76.40;;;;;;5368328;26;20252;-81
2024/05/02 09:39:26;;;;;;;1.48;0.80;;;20.90;75.00;;;;;;5374497;26;20707;-81
2024/05/02 09:42:00;;;;;;;0.90;0.80;;;20.90;73.40;;;;;;5372595;26;20294;-81
2024/05/02 09:44:32;;;;;;;2.33;0.80;;;20.90;72.90;;;;;;5372391;26;20740;-81
2024/05/02 09:47:06;;;;;;;0.82;0.70;;;20.90;75.50;;;;;;5370746;26;20308;-81
2024/05/02 09:49:40;;;;;;;0.75;0.57;;;21.10;75.90;;;;;;5385141;26;20316;-81
2024/05/02 09:52:22;;;;;;;0.70;0.70;;;21.10;76.80;;;;;;5371316;26;20281;-81
2024/05/02 09:54:53;;;;;;;1.70;1.10;;;21.10;78.00;;;;;;5379538;26;20239;-81
2024/05/02 09:57:22;;;;;;;1.92;1.00;;;21.10;78.30;;;;;;5379054;26;20356;-81
2024/05/02 09:59:53;;;;;;;1.27;0.90;;;21.20;77.60;;;;;;5367902;26;20309;-81
2024/05/02 10:02:23;;;;;;;0.60;0.60;;;21.20;76.80;;;;;;5372775;26;20243;-81
2024/05/02 10:04:53;;;;;;;2.00;0.73;;;21.50;78.40;;;;;;5380587;26;20611;-82
2024/05/02 10:07:34;;;;;;;0.82;0.63;;;22.00;75.20;;;;;;5376079;26;20247;-80
2024/05/02 10:10:28;;;;;;;2.42;0.80;;;22.60;78.80;;;;;;5369564;26;20258;-82
2024/05/02 10:12:59;;;;;;;2.03;0.60;;;23.40;71.80;;;;;;5358299;26;20254;-82
2024/05/02 10:15:31;;;;;;;1.27;0.63;;;;;;;;;;5367848;26;20345;-83
2024/05/02 10:18:00;;;;;;;1.17;0.60;;;24.70;83.80;;;;;;5380009;26;20718;-81
2024/05/02 10:20:29;;;;;;;0.60;0.60;;;25.00;73.80;;;;;;5383660;26;20246;-81
2024/05/02 10:23:00;;;;;;;1.27;0.60;;;25.30;74.40;;;;;;5390548;26;20306;-82
2024/05/02 10:25:30;;;;;;;0.80;0.50;;;25.90;72.20;;;;;;5369907;26;20306;-82
2024/05/02 10:28:02;;;;;;;0.80;0.50;;;26.30;71.90;;;;;;5388667;26;20241;-81
2024/05/02 10:30:32;;;;;;;1.02;0.70;;;26.60;79.10;;;;;;5365777;26;20309;-82
2024/05/02 10:33:01;;;;;;;2.63;0.60;;;26.70;75.80;;;;;;5371302;26;20273;-81
2024/05/02 10:35:30;;;;;;;1.48;0.57;;;27.00;69.80;;;;;;5361989;26;20246;-80
2024/05/02 10:38:02;;;;;;;1.92;0.50;;;27.40;87.60;;;;;;5375743;26;20357;-79
2024/05/02 10:40:31;;;;;;;0.50;0.30;;;27.60;81.10;;;;;;5376182;26;20239;-82
2024/05/02 10:43:00;;;;;;;1.02;0.30;;;27.80;80.50;;;;;;5379443;26;20342;-80
2024/05/02 10:45:30;;;;;;;0.85;0.40;;;27.90;75.50;;;;;;5378649;26;20294;-80
2024/05/02 10:47:59;;;;;;;1.73;0.40;;;28.00;70.00;;;;;;5380383;26;20250;-81
2024/05/02 10:50:29;;;;;;;0.40;0.40;;;28.10;71.80;;;;;;5391093;26;20253;-81
2024/05/02 10:52:58;;;;;;;1.02;0.40;;;28.20;71.70;;;;;;5385677;26;20293;-78
2024/05/02 10:55:29;;;;;;;0.47;0.47;;;28.40;60.70;;;;;;5382440;26;20236;-81
2024/05/02 10:58:00;;;;;;;0.38;0.30;;;28.70;57.30;;;;;;5382100;26;20285;-80
2024/05/02 11:00:28;;;;;;;1.85;0.40;;;28.70;53.40;;;;;;5383693;26;20671;-80
2024/05/02 11:02:57;;;;;;;0.65;0.40;;;28.60;51.10;;;;;;5383235;26;20254;-81
2024/05/02 11:05:26;;;;;;;0.80;0.40;;;28.10;53.70;;;;;;5377247;26;20295;-81
2024/05/02 11:07:56;;;;;;;1.65;0.43;;;27.40;57.50;;;;;;5394474;26;20765;-80
2024/05/02 11:10:26;;;;;;;1.30;0.22;;;26.90;57.50;;;;;;5385790;26;20242;-80
2024/05/02 11:12:57;;;;;;;1.35;0.50;;;26.60;58.50;;;;;;5388649;26;20778;-80
2024/05/02 11:15:26;;;;;;;1.48;0.40;;;26.70;61.20;;;;;;5380315;26;20242;-80
2024/05/02 11:17:55;;;;;;;1.08;0.40;;;27.00;55.40;;;;;;5386518;26;20247;-79
2024/05/02 11:20:25;;;;;;;0.30;0.30;;;27.00;54.50;;;;;;5390567;26;20244;-81
2024/05/02 11:23:00;;;;;;;0.65;0.50;;;27.00;59.70;;;;;;5383964;26;20246;-83
2024/05/02 11:25:30;;;;;;;0.57;0.57;;;26.60;58.10;;;;;;5381698;26;20738;-81
2024/05/02 11:28:01;;;;;;;0.88;0.35;;;26.10;58.40;;;;;;5392736;26;20763;-81
2024/05/02 11:30:31;;;;;;;2.50;0.45;;;25.70;57.10;;;;;;5371166;26;20347;-82
2024/05/02 11:33:01;;;;;;;2.08;0.50;;;25.40;56.00;;;;;;5373135;26;20314;-82
2024/05/02 11:35:31;;;;;;;1.38;0.40;;;25.10;56.80;;;;;;5360818;26;20377;-82
2024/05/02 11:38:00;;;;;;;3.05;0.30;;;24.70;55.70;;;;;;5377595;26;20303;-83
2024/05/02 11:40:29;;;;;;;1.30;0.32;;;24.60;66.40;;;;;;5372306;26;20240;-83
2024/05/02 11:42:57;;;;;;;3.38;0.40;;;24.50;68.90;;;;;;5374564;26;22061;-84
2024/05/02 11:45:29;;;;;;;4.38;0.80;;;24.50;67.90;;;;;;5373879;26;20243;-82
2024/05/02 11:47:58;;;;;;;2.53;0.50;;;24.60;63.80;;;;;;5388044;26;20297;-82
2024/05/02 11:50:26;;;;;;;3.92;0.52;;;24.70;61.30;;;;;;5373952;26;20303;-83
2024/05/02 11:52:55;;;;;;;2.90;0.57;;;24.80;59.10;;;;;;5382500;26;20732;-83
2024/05/02 11:55:24;;;;;;;1.58;0.80;;;24.80;59.80;;;;;;5384256;26;20290;-84
2024/05/02 11:57:53;;;;;;;1.55;0.40;;;25.00;61.20;;;;;;5381305;26;20713;-84
2024/05/02 12:00:22;;;;;;;1.83;0.40;;;24.90;60.20;;;;;;5380729;26;20793;-83
2024/05/02 12:02:54;;;;;;;2.38;0.38;;;24.80;57.20;;;;;;5379204;26;20290;-83
2024/05/02 12:05:23;;;;;;;3.13;0.52;;;24.60;58.50;;;;;;5377444;26;21067;-83
2024/05/02 12:07:52;;;;;;;1.05;0.45;;;24.50;58.30;;;;;;5380190;26;20247;-83
2024/05/02 12:10:20;;;;;;;2.08;0.60;;;24.40;62.40;;;;;;5377356;26;20250;-83
2024/05/02 12:12:52;;;;;;;1.35;0.40;;;24.10;60.40;;;;;;5383036;26;20791;-83
2024/05/02 12:15:21;;;;;;;1.67;0.50;;;23.90;59.20;;;;;;5380238;26;20238;-83
2024/05/02 12:17:50;;;;;;;2.28;0.38;;;23.60;59.00;;;;;;5380349;26;20239;-85
2024/05/02 12:20:21;;;;;;;3.08;0.60;;;23.40;57.70;;;;;;5382471;26;20284;-85
2024/05/02 12:22:51;;;;;;;0.90;0.50;;;23.10;61.40;;;;;;5386386;26;20242;-85
2024/05/02 12:25:20;;;;;;;0.90;0.60;;;23.00;62.90;;;;;;5376859;26;20289;-85
2024/05/02 12:27:50;;;;;;;3.00;0.47;;;23.00;65.00;;;;;;5380611;26;20246;-86
2024/05/02 12:30:18;;;;;;;0.70;0.68;;;22.90;81.10;;;;;;5372889;26;27869;-85
2024/05/02 12:32:47;;;;;;;1.55;0.60;;;22.70;81.00;;;;;;5362066;26;20242;-85
2024/05/02 12:35:16;;;;;;;2.30;0.38;;;22.60;79.30;;;;;;5363468;26;20290;-85
2024/05/02 12:37:48;;;;;;;2.75;0.50;;;22.50;82.10;;;;;;5366008;26;20247;-85
2024/05/02 12:40:18;;;;;;;2.78;0.65;;;22.50;84.30;;;;;;5373724;26;20272;-85
2024/05/02 12:42:47;;;;;;;0.47;0.40;;;22.50;89.70;;;;;;5376125;26;20238;-85
2024/05/02 12:45:16;;;;;;;2.13;0.30;;;22.40;87.90;;;;;;5380095;26;20251;-85
2024/05/02 12:47:45;;;;;;;1.38;0.40;;;22.30;90.00;;;;;;5380533;26;20343;-85
2024/05/02 12:50:13;;;;;;;0.63;0.40;;;22.40;86.10;;;;;;5379601;26;20285;-85
2024/05/02 12:52:42;;;;;;;1.42;0.30;;;22.60;85.60;;;;;;5381832;26;20239;-84
2024/05/02 12:55:14;;;;;;;1.17;0.40;;;22.70;84.50;;;;;;5375594;26;20275;-85
2024/05/02 12:57:45;;;;;;;2.20;0.52;;;22.90;85.00;;;;;;5373829;26;20401;-85
2024/05/02 13:00:15;;;;;;;1.90;0.43;;;23.10;87.30;;;;;;5378103;26;20250;-85